Time;durP1;ratioP1;P1;durP2;ratioP2;P2;SDS_P1;SDS_P2;PMS_P1;PMS_P2;Temp;Humidity;BMP_temperature;BMP_pressure;BME280_temperature;BME280_humidity;BME280_pressure;Samples;Min_cycle;Max_cycle;Signal;HPM_P1;HPM_P2
2022/12/19 00:01:35;;;;;;;;;;;;;;;-4.36;88.14;101644.47;4980118;28;19963;-67
2022/12/19 00:04:01;;;;;;;;;;;;;;;-4.35;87.65;101636.50;4982459;28;19929;-67
2022/12/19 00:06:27;;;;;;;;;;;;;;;-4.32;87.30;101625.06;4980485;28;19918;-68
2022/12/19 00:08:57;;;;;;;;;;;;;;;-4.28;87.22;101619.59;4981937;28;19922;-68
2022/12/19 00:11:23;;;;;;;;;;;;;;;-4.25;87.05;101628.25;4983960;28;19969;-70
2022/12/19 00:13:49;;;;;;;;;;;;;;;-4.29;86.98;101631.03;4980909;28;19914;-74
2022/12/19 00:16:18;;;;;;;;;;;;;;;-4.23;87.07;101631.63;4984885;28;19960;-70
2022/12/19 00:18:44;;;;;;;;;;;;;;;-4.22;87.12;101634.19;4983445;28;20391;-69
2022/12/19 00:21:11;;;;;;;;;;;;;;;-4.19;87.06;101625.34;4984489;28;19914;-70
2022/12/19 00:23:36;;;;;;;;;;;;;;;-4.15;87.28;101630.38;4985802;28;19917;-70
2022/12/19 00:26:09;;;;;;;;;;;;;;;-4.09;87.33;101619.63;4981548;28;19921;-69
2022/12/19 00:28:34;;;;;;;;;;;;;;;-4.04;87.80;101616.78;4982765;28;20016;-70
2022/12/19 00:31:00;;;;;;;;;;;;;;;-4.00;87.25;101620.09;4981949;28;20005;-71
2022/12/19 00:33:25;;;;;;;;;;;;;;;-3.98;87.49;101620.88;4986900;28;19918;-72
2022/12/19 00:35:55;;;;;;;;;;;;;;;-3.95;87.43;101616.34;4985558;28;20449;-72
2022/12/19 00:38:21;;;;;;;;;;;;;;;-3.89;87.84;101612.59;4967730;28;19929;-72
2022/12/19 00:40:46;;;;;;;;;;;;;;;-3.87;86.97;101610.72;4984503;28;19918;-72
2022/12/19 00:43:11;;;;;;;;;;;;;;;-3.85;86.85;101608.88;4987864;28;19953;-72
2022/12/19 00:45:37;;;;;;;;;;;;;;;-3.80;86.56;101611.31;4984691;28;19913;-72
2022/12/19 00:48:02;;;;;;;;;;;;;;;-3.79;87.12;101599.88;4984365;28;20361;-72
2022/12/19 00:50:30;;;;;;;;;;;;;;;-3.76;87.07;101590.09;4985603;28;19918;-72
2022/12/19 00:52:56;;;;;;;;;;;;;;;-3.70;86.85;101584.56;4986564;28;19925;-72
2022/12/19 00:55:21;;;;;;;;;;;;;;;-3.64;87.51;101583.41;4985927;28;19928;-72
2022/12/19 00:57:46;;;;;;;;;;;;;;;-3.66;86.84;101577.34;4986715;28;20302;-72
2022/12/19 01:00:12;;;;;;;;;;;;;;;-3.66;85.90;101579.13;4987986;28;19972;-72
2022/12/19 01:02:37;;;;;;;;;;;;;;;-3.61;87.19;101574.53;4987282;28;19914;-72
2022/12/19 01:05:03;;;;;;;;;;;;;;;-3.54;87.72;101574.16;4984987;28;20001;-72
2022/12/19 01:07:28;;;;;;;;;;;;;;;-3.48;87.62;101570.38;4969468;28;19944;-72
2022/12/19 01:09:53;;;;;;;;;;;;;;;-3.43;87.75;101568.38;4988862;28;19914;-72
2022/12/19 01:15:03;;;;;;;;;;;;;;;-3.45;86.68;101570.22;4986149;28;19918;-71
2022/12/19 01:17:28;;;;;;;;;;;;;;;-3.44;86.61;101566.66;4985689;28;19921;-71
2022/12/19 01:19:53;;;;;;;;;;;;;;;-3.43;87.06;101559.66;4986862;28;20378;-72
2022/12/19 01:22:19;;;;;;;;;;;;;;;-3.39;87.56;101558.56;4984452;28;19914;-72
2022/12/19 01:24:44;;;;;;;;;;;;;;;-3.34;87.52;101549.53;4986019;28;19954;-71
2022/12/19 01:27:09;;;;;;;;;;;;;;;-3.29;87.66;101546.66;4985383;28;19953;-71
2022/12/19 01:29:35;;;;;;;;;;;;;;;-3.29;86.75;101557.16;4989043;28;19936;-71
2022/12/19 01:32:00;;;;;;;;;;;;;;;-3.33;86.26;101558.25;4986989;28;19941;-72
2022/12/19 01:34:26;;;;;;;;;;;;;;;-3.37;86.39;101557.56;4990054;28;20267;-72
2022/12/19 01:36:51;;;;;;;;;;;;;;;-3.37;86.72;101560.19;4971732;28;19937;-72
2022/12/19 01:39:17;;;;;;;;;;;;;;;-3.37;86.50;101565.44;4988172;28;19925;-71
2022/12/19 01:41:42;;;;;;;;;;;;;;;-3.32;87.12;101566.06;4987350;28;19914;-71
2022/12/19 01:44:07;;;;;;;;;;;;;;;-3.27;87.38;101559.72;4988300;28;19914;-72
2022/12/19 01:46:33;;;;;;;;;;;;;;;-3.26;86.64;101548.28;4986835;28;19913;-72
2022/12/19 01:48:59;;;;;;;;;;;;;;;-3.25;86.85;101542.09;4983753;28;20005;-72
2022/12/19 01:51:36;;;;;;;;;;;;;;;-3.20;86.52;101532.22;4988874;28;19914;-72
2022/12/19 01:54:03;;;;;;;;;;;;;;;-3.19;86.67;101521.63;4983332;28;19913;-71
2022/12/19 01:56:31;;;;;;;;;;;;;;;-3.15;87.75;101523.16;4987916;28;20001;-71
2022/12/19 01:58:59;;;;;;;;;;;;;;;-3.11;87.10;101518.59;4986954;28;19922;-71
2022/12/19 02:01:24;;;;;;;;;;;;;;;-3.11;86.89;101514.19;4985605;28;19914;-72
2022/12/19 02:03:51;;;;;;;;;;;;;;;-3.09;86.67;101502.78;4990593;28;19914;-72
2022/12/19 02:06:17;;;;;;;;;;;;;;;-3.09;87.39;101495.72;4990486;28;19925;-71
2022/12/19 02:08:45;;;;;;;;;;;;;;;-3.09;86.46;101494.88;4984580;28;19953;-71
2022/12/19 02:11:10;;;;;;;;;;;;;;;-3.08;86.97;101491.31;4985341;28;20005;-71
2022/12/19 02:13:35;;;;;;;;;;;;;;;-3.04;87.13;101503.38;4983725;28;19956;-71
2022/12/19 02:16:22;;;;;;;;;;;;;;;-3.02;87.25;101497.09;4986083;28;19922;-71
2022/12/19 02:18:54;;;;;;;;;;;;;;;-2.97;87.79;101494.22;4968085;28;19918;-72
2022/12/19 02:21:23;;;;;;;;;;;;;;;-2.94;88.16;101489.66;4985794;28;19945;-72
2022/12/19 02:24:02;;;;;;;;;;;;;;;-2.92;87.83;101485.19;4970214;28;19929;-72
2022/12/19 02:26:46;;;;;;;;;;;;;;;-2.88;87.15;101492.91;4986617;28;19968;-72
2022/12/19 02:29:23;;;;;;;;;;;;;;;-2.86;87.42;101498.91;4983990;28;19917;-72
2022/12/19 02:31:52;;;;;;;;;;;;;;;-2.86;87.39;101493.66;4984172;28;19914;-72
2022/12/19 02:34:17;;;;;;;;;;;;;;;-2.84;87.11;101490.03;4985444;28;19914;-72
2022/12/19 02:36:47;;;;;;;;;;;;;;;-2.82;87.59;101490.81;4984371;28;19914;-72
2022/12/19 02:39:16;;;;;;;;;;;;;;;-2.82;87.74;101488.19;4968740;28;19921;-72
2022/12/19 02:41:45;;;;;;;;;;;;;;;-2.79;87.86;101474.84;4987258;28;19917;-72
2022/12/19 02:44:18;;;;;;;;;;;;;;;-2.77;87.65;101477.41;4969239;28;19958;-72
2022/12/19 02:46:44;;;;;;;;;;;;;;;-2.78;88.13;101484.44;4984472;28;19921;-72
2022/12/19 02:49:10;;;;;;;;;;;;;;;-2.80;87.74;101478.44;4986077;28;19928;-72
2022/12/19 02:51:36;;;;;;;;;;;;;;;-2.77;87.40;101465.13;4985714;28;19914;-71
2022/12/19 02:54:01;;;;;;;;;;;;;;;-2.75;87.81;101460.63;4988630;28;19984;-71
2022/12/19 02:56:38;;;;;;;;;;;;;;;-2.72;87.91;101470.97;4988329;28;19949;-72
2022/12/19 02:59:10;;;;;;;;;;;;;;;-2.68;87.86;101465.56;4987180;28;19914;-72
2022/12/19 03:01:41;;;;;;;;;;;;;;;-2.67;88.41;101448.84;4970126;28;20322;-72
2022/12/19 03:04:19;;;;;;;;;;;;;;;-2.65;88.86;101450.47;4987288;28;19921;-72
2022/12/19 03:06:48;;;;;;;;;;;;;;;-2.65;88.68;101449.63;4986852;28;19957;-72
2022/12/19 03:09:23;;;;;;;;;;;;;;;-2.63;88.76;101450.38;4988332;28;19980;-72
2022/12/19 03:11:49;;;;;;;;;;;;;;;-2.62;88.58;101449.44;4988029;28;20401;-72
2022/12/19 03:14:17;;;;;;;;;;;;;;;-2.63;87.98;101432.81;4988456;28;19968;-72
2022/12/19 03:16:42;;;;;;;;;;;;;;;-2.63;88.26;101443.34;4987398;28;20392;-72
2022/12/19 03:19:09;;;;;;;;;;;;;;;-2.64;88.83;101441.63;4973261;28;19961;-71
2022/12/19 03:21:37;;;;;;;;;;;;;;;-2.58;88.62;101436.03;4975727;28;19992;-71
2022/12/19 03:24:03;;;;;;;;;;;;;;;-2.57;88.29;101432.47;4969843;28;19928;-71
2022/12/19 03:26:31;;;;;;;;;;;;;;;-2.54;88.95;101431.47;4987284;28;20381;-71
2022/12/19 03:29:06;;;;;;;;;;;;;;;-2.52;89.08;101429.59;4987816;28;19922;-71
2022/12/19 03:31:33;;;;;;;;;;;;;;;-2.49;88.80;101433.81;4983641;28;19980;-71
2022/12/19 03:34:01;;;;;;;;;;;;;;;-2.47;88.95;101429.31;4989719;28;19914;-70
2022/12/19 03:36:29;;;;;;;;;;;;;;;-2.46;88.71;101421.34;4989472;28;19933;-71
2022/12/19 03:38:55;;;;;;;;;;;;;;;-2.45;88.35;101415.19;4986127;28;20020;-71
2022/12/19 03:43:07;;;;;;;;;;;;;;;-2.43;88.64;101408.03;4988697;28;19914;-71
2022/12/19 03:44:08;;;;;;;;;;;;;;;-2.41;88.39;101390.38;4988555;28;19990;-71
2022/12/19 03:46:35;;;;;;;;;;;;;;;-2.42;88.24;101395.72;4972490;28;19946;-72
2022/12/19 03:49:01;;;;;;;;;;;;;;;-2.41;88.37;101387.75;4987270;28;20386;-71
2022/12/19 03:51:26;;;;;;;;;;;;;;;-2.38;88.47;101386.72;4985178;28;19918;-71
2022/12/19 03:53:51;;;;;;;;;;;;;;;-2.38;88.93;101387.59;4988026;28;19922;-72
2022/12/19 03:56:29;;;;;;;;;;;;;;;-2.37;88.19;101381.38;4988985;28;19977;-72
2022/12/19 03:59:00;;;;;;;;;;;;;;;-2.33;88.59;101377.63;4987422;28;19914;-71
2022/12/19 04:01:27;;;;;;;;;;;;;;;-2.30;88.62;101383.66;4988169;28;19929;-72
2022/12/19 04:03:53;;;;;;;;;;;;;;;-2.27;88.84;101373.81;4986144;28;19922;-72
2022/12/19 04:06:18;;;;;;;;;;;;;;;-2.24;88.82;101360.47;4987724;28;19914;-72
2022/12/19 04:08:44;;;;;;;;;;;;;;;-2.23;88.80;101359.56;4969641;28;19918;-72
2022/12/19 04:11:15;;;;;;;;;;;;;;;-2.19;88.88;101379.50;4986112;28;19996;-72
2022/12/19 04:13:42;;;;;;;;;;;;;;;-2.17;89.40;101376.78;4992546;28;19914;-73
2022/12/19 04:16:12;;;;;;;;;;;;;;;-2.14;89.13;101363.41;4986345;28;19915;-72
2022/12/19 04:18:39;;;;;;;;;;;;;;;-2.11;89.47;101357.16;4969773;28;20342;-72
2022/12/19 04:21:10;;;;;;;;;;;;;;;-2.10;89.26;101359.66;4996957;28;19925;-72
2022/12/19 04:23:43;;;;;;;;;;;;;;;-2.12;88.51;101363.34;5003007;28;19945;-72
2022/12/19 04:26:09;;;;;;;;;;;;;;;-2.13;88.47;101361.66;4984762;28;19918;-72
2022/12/19 04:28:40;;;;;;;;;;;;;;;-2.12;88.08;101363.34;4989453;28;20499;-72
2022/12/19 04:31:07;;;;;;;;;;;;;;;-2.11;89.32;101359.78;4987672;28;19968;-72
2022/12/19 04:33:32;;;;;;;;;;;;;;;-2.11;88.48;101355.34;4987376;28;19921;-72
2022/12/19 04:35:58;;;;;;;;;;;;;;;-2.11;88.99;101355.34;4970356;28;19921;-72
2022/12/19 04:38:25;;;;;;;;;;;;;;;-2.07;88.97;101348.13;4988877;28;19926;-72
2022/12/19 04:40:50;;;;;;;;;;;;;;;-2.11;89.01;101341.38;4987543;28;19917;-72
2022/12/19 04:43:16;;;;;;;;;;;;;;;-2.09;88.45;101337.69;4987761;28;19914;-72
2022/12/19 04:45:41;;;;;;;;;;;;;;;-2.06;89.64;101324.38;4971155;28;20334;-71
2022/12/19 04:48:06;;;;;;;;;;;;;;;-2.04;89.02;101325.13;4967448;28;20016;-72
2022/12/19 04:50:32;;;;;;;;;;;;;;;-2.02;89.46;101319.75;4989847;28;19922;-71
2022/12/19 04:52:57;;;;;;;;;;;;;;;-2.00;89.60;101325.78;4985490;28;20350;-71
2022/12/19 04:55:22;;;;;;;;;;;;;;;-1.98;88.66;101324.75;4971037;28;20278;-73
2022/12/19 04:57:48;;;;;;;;;;;;;;;-1.98;88.69;101319.47;4985565;28;19914;-71
2022/12/19 05:00:13;;;;;;;;;;;;;;;-1.96;89.44;101322.03;4987790;28;19914;-71
2022/12/19 05:02:39;;;;;;;;;;;;;;;-1.94;88.81;101322.78;4987371;28;19960;-71
2022/12/19 05:05:04;;;;;;;;;;;;;;;-1.92;88.67;101317.44;4986006;28;19918;-70
2022/12/19 05:07:29;;;;;;;;;;;;;;;-1.91;89.34;101311.19;4987644;28;19925;-70
2022/12/19 05:09:57;;;;;;;;;;;;;;;-1.90;88.70;101305.00;4990954;28;19918;-71
2022/12/19 05:12:22;;;;;;;;;;;;;;;-1.88;89.50;101298.72;4985542;28;19922;-71
2022/12/19 05:14:48;;;;;;;;;;;;;;;-1.87;88.60;101302.22;4986366;28;19918;-71
2022/12/19 05:17:13;;;;;;;;;;;;;;;-1.85;89.01;101297.69;4985771;28;19937;-71
2022/12/19 05:19:38;;;;;;;;;;;;;;;-1.85;89.54;101300.31;4985145;28;19914;-71
2022/12/19 05:22:04;;;;;;;;;;;;;;;-1.86;88.97;101298.63;4984314;28;19981;-71
2022/12/19 05:24:29;;;;;;;;;;;;;;;-1.87;89.21;101286.41;4987663;28;19921;-71
2022/12/19 05:26:54;;;;;;;;;;;;;;;-1.86;88.82;101285.47;4987213;28;20318;-71
2022/12/19 05:29:20;;;;;;;;;;;;;;;-1.86;88.72;101274.94;4990420;28;20363;-71
2022/12/19 05:31:45;;;;;;;;;;;;;;;-1.87;88.93;101266.19;4984936;28;19936;-71
2022/12/19 05:34:10;;;;;;;;;;;;;;;-1.83;89.67;101264.22;4988707;28;19965;-72
2022/12/19 05:36:35;;;;;;;;;;;;;;;-1.82;89.03;101255.38;4987368;28;19914;-72
2022/12/19 05:39:01;;;;;;;;;;;;;;;-1.82;89.26;101255.38;4987977;28;20374;-72
2022/12/19 05:41:26;;;;;;;;;;;;;;;-1.80;89.61;101254.34;4985348;28;20016;-72
2022/12/19 05:43:53;;;;;;;;;;;;;;;-1.80;90.00;101258.75;4987370;28;19981;-72
2022/12/19 05:46:19;;;;;;;;;;;;;;;-1.81;88.90;101255.28;4987110;28;19917;-71
2022/12/19 05:48:44;;;;;;;;;;;;;;;-1.80;89.15;101251.72;4969652;28;19925;-72
2022/12/19 05:51:09;;;;;;;;;;;;;;;-1.79;89.45;101245.50;4985546;28;19918;-71
2022/12/19 05:53:35;;;;;;;;;;;;;;;-1.77;88.89;101248.03;4988569;28;19913;-72
2022/12/19 05:56:07;;;;;;;;;;;;;;;-1.78;89.11;101249.00;4987657;28;19918;-72
2022/12/19 05:58:33;;;;;;;;;;;;;;;-1.80;89.38;101243.81;4986374;28;19937;-72
2022/12/19 06:01:05;;;;;;;;;;;;;;;-1.81;89.24;101242.13;4969457;28;20361;-71
2022/12/19 06:03:30;;;;;;;;;;;;;;;-1.83;88.69;101233.47;4984139;28;20016;-71
2022/12/19 06:05:55;;;;;;;;;;;;;;;-1.84;89.63;101239.69;4969152;28;19956;-72
2022/12/19 06:08:21;;;;;;;;;;;;;;;-1.86;89.22;101244.19;4985903;28;19919;-72
2022/12/19 06:10:46;;;;;;;;;;;;;;;-1.87;88.61;101242.50;4985422;28;19918;-72
2022/12/19 06:13:11;;;;;;;;;;;;;;;-1.90;89.08;101242.69;4986686;28;19929;-72
2022/12/19 06:15:37;;;;;;;;;;;;;;;-1.93;88.90;101235.00;4985738;28;20389;-72
2022/12/19 06:18:02;;;;;;;;;;;;;;;-1.96;88.57;101237.78;4985430;28;19957;-72
2022/12/19 06:20:27;;;;;;;;;;;;;;;-1.94;89.38;101230.66;4986705;28;20009;-72
2022/12/19 06:22:53;;;;;;;;;;;;;;;-1.98;88.29;101226.53;4984406;28;20397;-72
2022/12/19 06:25:18;;;;;;;;;;;;;;;-1.97;89.25;101226.44;4982870;28;19917;-72
2022/12/19 06:27:43;;;;;;;;;;;;;;;-1.97;88.73;101229.06;4990821;28;19918;-72
2022/12/19 06:30:09;;;;;;;;;;;;;;;-1.96;89.52;101222.00;4988474;28;19983;-72
2022/12/19 06:32:34;;;;;;;;;;;;;;;-1.98;88.81;101227.34;4990319;28;19913;-72
2022/12/19 06:34:59;;;;;;;;;;;;;;;-2.00;88.69;101215.25;4990493;28;19968;-72
2022/12/19 06:37:25;;;;;;;;;;;;;;;-2.04;89.45;101203.22;4986393;28;19922;-72
2022/12/19 06:39:50;;;;;;;;;;;;;;;-2.09;88.54;101202.66;4988551;28;19944;-72
2022/12/19 06:42:21;;;;;;;;;;;;;;;-2.11;89.58;101200.09;4989071;28;19969;-72
2022/12/19 06:44:47;;;;;;;;;;;;;;;-2.16;89.18;101208.25;4988351;28;19913;-72
2022/12/19 06:47:12;;;;;;;;;;;;;;;-2.19;89.84;101203.22;4990039;28;19918;-71
2022/12/19 06:49:37;;;;;;;;;;;;;;;-2.24;88.79;101207.88;4991047;28;19918;-72
2022/12/19 06:52:02;;;;;;;;;;;;;;;-2.25;89.55;101202.72;4989029;28;19957;-72
2022/12/19 06:54:28;;;;;;;;;;;;;;;-2.30;88.74;101205.63;4990976;28;19921;-71
2022/12/19 06:56:53;;;;;;;;;;;;;;;-2.34;88.34;101194.44;4990047;28;20274;-72
2022/12/19 06:59:18;;;;;;;;;;;;;;;-2.34;89.09;101193.59;4988894;28;19914;-72
2022/12/19 07:02:02;;;;;;;;;;;;;;;-2.33;88.93;101197.91;4988749;28;20396;-72
2022/12/19 07:04:57;;;;;;;;;;;;;;;-2.34;88.36;101186.56;4989055;28;19943;-72
2022/12/19 07:07:22;;;;;;;;;;;;;;;-2.38;87.66;101186.81;4974104;28;19972;-71
2022/12/19 07:09:48;;;;;;;;;;;;;;;-2.37;88.53;101183.28;4991819;28;20290;-71
2022/12/19 07:12:13;;;;;;;;;;;;;;;-2.33;88.38;101177.72;4989046;28;19915;-71
2022/12/19 07:14:38;;;;;;;;;;;;;;;-2.31;88.90;101179.44;4989329;28;19921;-72
2022/12/19 07:17:05;;;;;;;;;;;;;;;-2.34;89.07;101178.69;4991656;28;19937;-71
2022/12/19 07:19:31;;;;;;;;;;;;;;;-2.35;88.28;101171.72;4972271;28;19921;-70
2022/12/19 07:21:57;;;;;;;;;;;;;;;-2.36;88.24;101172.66;4989237;28;19936;-70
2022/12/19 07:24:22;;;;;;;;;;;;;;;-2.35;88.39;101169.06;4988374;28;19922;-71
2022/12/19 07:26:48;;;;;;;;;;;;;;;-2.33;89.17;101167.19;4987779;28;19924;-71
2022/12/19 07:29:13;;;;;;;;;;;;;;;-2.35;88.43;101162.97;4986145;28;19977;-71
2022/12/19 07:31:38;;;;;;;;;;;;;;;-2.38;88.97;101157.88;4989196;28;19915;-72
2022/12/19 07:34:04;;;;;;;;;;;;;;;-2.40;89.21;101165.03;4985333;28;19914;-72
2022/12/19 07:36:29;;;;;;;;;;;;;;;-2.43;88.37;101168.69;4985254;28;19918;-72
2022/12/19 07:38:54;;;;;;;;;;;;;;;-2.45;88.52;101164.47;4983847;28;19972;-72
2022/12/19 07:41:20;;;;;;;;;;;;;;;-2.45;88.44;101164.47;4987946;28;19913;-72
2022/12/19 07:43:46;;;;;;;;;;;;;;;-2.49;88.95;101155.91;4989239;28;19920;-73
2022/12/19 07:46:11;;;;;;;;;;;;;;;-2.50;88.92;101156.03;4972534;28;19918;-72
2022/12/19 07:48:36;;;;;;;;;;;;;;;-2.49;89.43;101155.91;4988043;28;19918;-72
2022/12/19 07:51:04;;;;;;;;;;;;;;;-2.47;89.05;101153.19;4988153;28;19972;-72
2022/12/19 07:53:30;;;;;;;;;;;;;;;-2.47;89.10;101153.19;4985349;28;20366;-74
2022/12/19 07:55:55;;;;;;;;;;;;;;;-2.47;89.35;101153.19;4988136;28;19913;-70
2022/12/19 07:58:20;;;;;;;;;;;;;;;-2.46;88.99;101147.84;4986515;28;20263;-68
2022/12/19 08:00:52;;;;;;;;;;;;;;;-2.44;89.08;101135.44;4985487;28;20005;-67
2022/12/19 08:03:18;;;;;;;;;;;;;;;-2.41;89.05;101131.81;4983903;28;19930;-67
2022/12/19 08:05:43;;;;;;;;;;;;;;;-2.40;88.55;101117.69;4983905;28;19913;-68
2022/12/19 08:08:08;;;;;;;;;;;;;;;-2.40;88.71;101117.69;4984217;28;19918;-68
2022/12/19 08:10:34;;;;;;;;;;;;;;;-2.38;88.58;101128.97;4983505;28;20005;-67
2022/12/19 08:12:59;;;;;;;;;;;;;;;-2.37;88.09;101120.97;4984279;28;19943;-67
2022/12/19 08:15:24;;;;;;;;;;;;;;;-2.35;88.21;101124.34;4985861;28;19914;-68
2022/12/19 08:17:50;;;;;;;;;;;;;;;-2.33;88.27;101119.84;4986386;28;20371;-68
2022/12/19 08:20:15;;;;;;;;;;;;;;;-2.26;88.15;101114.22;4985052;28;19931;-68
2022/12/19 08:22:40;;;;;;;;;;;;;;;-2.24;88.73;101097.41;4985299;28;20291;-68
2022/12/19 08:25:06;;;;;;;;;;;;;;;-2.18;89.07;101101.44;4985044;28;19918;-68
2022/12/19 08:27:31;;;;;;;;;;;;;;;-2.16;88.68;101100.38;4984564;28;19914;-69
2022/12/19 08:29:57;;;;;;;;;;;;;;;-2.12;88.65;101090.50;4983897;28;20001;-69
2022/12/19 08:32:22;;;;;;;;;;;;;;;-2.08;87.89;101085.91;4984555;28;20393;-69
2022/12/19 08:34:48;;;;;;;;;;;;;;;-2.05;88.01;101088.34;4983797;28;19918;-69
2022/12/19 08:37:13;;;;;;;;;;;;;;;-2.03;87.47;101089.94;4982573;28;19929;-69
2022/12/19 08:39:39;;;;;;;;;;;;;;;-2.01;87.49;101076.69;4984073;28;19913;-69
2022/12/19 08:42:04;;;;;;;;;;;;;;;-1.97;87.96;101070.28;4984816;28;19988;-69
2022/12/19 08:44:29;;;;;;;;;;;;;;;-1.95;87.77;101074.53;4984979;28;19929;-69
2022/12/19 08:46:54;;;;;;;;;;;;;;;-1.92;87.45;101077.91;4984214;28;19914;-68
2022/12/19 08:49:20;;;;;;;;;;;;;;;-1.89;87.75;101070.66;4984281;28;20075;-69
2022/12/19 08:51:45;;;;;;;;;;;;;;;-1.89;87.49;101061.91;4985017;28;19938;-69
2022/12/19 08:54:11;;;;;;;;;;;;;;;-1.85;87.43;101063.41;4984437;28;19992;-69
2022/12/19 08:56:37;;;;;;;;;;;;;;;-1.82;87.91;101065.81;4984549;28;19982;-68
2022/12/19 08:59:02;;;;;;;;;;;;;;;-1.81;87.06;101072.78;4984038;28;20267;-68
2022/12/19 09:01:27;;;;;;;;;;;;;;;-1.78;87.44;101081.34;4984879;28;19917;-68
2022/12/19 09:03:56;;;;;;;;;;;;;;;-1.77;87.04;101072.47;4981684;28;19917;-68
2022/12/19 09:06:22;;;;;;;;;;;;;;;-1.73;86.69;101078.38;4984910;28;19933;-68
2022/12/19 09:08:47;;;;;;;;;;;;;;;-1.71;87.50;101068.59;4982584;28;20433;-68
2022/12/19 09:11:14;;;;;;;;;;;;;;;-1.68;86.28;101067.56;4983263;28;19941;-68
2022/12/19 09:13:42;;;;;;;;;;;;;;;-1.66;86.61;101066.53;4984098;28;20016;-68
2022/12/19 09:16:14;;;;;;;;;;;;;;;-1.64;86.65;101066.44;4982049;28;20021;-69
2022/12/19 09:18:40;;;;;;;;;;;;;;;-1.63;86.53;101061.06;4983408;28;20359;-69
2022/12/19 09:21:05;;;;;;;;;;;;;;;-1.60;86.11;101062.66;4984657;28;19960;-69
2022/12/19 09:23:31;;;;;;;;;;;;;;;-1.59;86.13;101061.72;4984810;28;19914;-69
2022/12/19 09:26:00;;;;;;;;;;;;;;;-1.58;86.40;101050.22;4984141;28;19921;-69
2022/12/19 09:28:25;;;;;;;;;;;;;;;-1.57;86.75;101050.13;4984782;28;19918;-69
2022/12/19 09:30:55;;;;;;;;;;;;;;;-1.57;85.87;101054.56;4983980;28;19914;-69
2022/12/19 09:33:20;;;;;;;;;;;;;;;-1.56;85.80;101056.22;4983499;28;19914;-69
2022/12/19 09:35:50;;;;;;;;;;;;;;;-1.57;85.49;101057.19;4983611;28;19915;-69
2022/12/19 09:38:15;;;;;;;;;;;;;;;-1.55;85.59;101055.28;4983550;28;19923;-69
2022/12/19 09:40:57;;;;;;;;;;;;;;;-1.56;84.88;101051.81;4983457;28;19920;-69
2022/12/19 09:43:24;;;;;;;;;;;;;;;-1.51;84.89;101051.50;4984377;28;19918;-68
2022/12/19 09:46:15;;;;;;;;;;;;;;;-1.47;85.62;101050.34;4983277;28;19961;-69
2022/12/19 09:48:40;;;;;;;;;;;;;;;-1.42;85.63;101042.16;4983052;28;19922;-69
2022/12/19 09:51:31;;;;;;;;;;;;;;;-1.41;85.00;101033.28;4981833;28;20349;-69
2022/12/19 09:54:17;;;;;;;;;;;;;;;-1.43;83.47;101030.78;4983595;28;19996;-69
2022/12/19 09:56:43;;;;;;;;;;;;;;;-1.38;85.29;101019.94;4982313;28;19929;-69
2022/12/19 09:59:13;;;;;;;;;;;;;;;-1.37;84.47;101021.63;4983642;28;19929;-69
2022/12/19 10:01:47;;;;;;;;;;;;;;;-1.36;84.79;101020.66;4982818;28;19924;-69
2022/12/19 10:04:13;;;;;;;;;;;;;;;-1.36;84.35;101015.41;4983097;28;19921;-69
2022/12/19 10:06:38;;;;;;;;;;;;;;;-1.38;84.63;101010.22;4983114;28;19918;-69
2022/12/19 10:09:10;;;;;;;;;;;;;;;-1.35;85.33;101014.47;4983477;28;19918;-69
2022/12/19 10:11:49;;;;;;;;;;;;;;;-1.38;85.11;101007.59;4982810;28;19920;-69
2022/12/19 10:14:23;;;;;;;;;;;;;;;-1.37;84.40;101003.19;4982977;28;19965;-69
2022/12/19 10:17:04;;;;;;;;;;;;;;;-1.34;85.53;100992.41;4983569;28;19918;-69
2022/12/19 10:19:49;;;;;;;;;;;;;;;-1.38;83.61;100994.41;4983029;28;19914;-69
2022/12/19 10:22:20;;;;;;;;;;;;;;;-1.38;84.18;100978.63;4966979;28;20378;-69
2022/12/19 10:24:53;;;;;;;;;;;;;;;-1.37;85.23;100975.03;4982650;28;19920;-69
2022/12/19 10:27:36;;;;;;;;;;;;;;;-1.38;84.78;100977.78;4983269;28;19921;-69
2022/12/19 10:30:13;;;;;;;;;;;;;;;-1.43;83.32;100970.19;4983637;28;20098;-69
2022/12/19 10:32:38;;;;;;;;;;;;;;;-1.45;83.39;100980.00;4982514;28;19924;-69
2022/12/19 10:35:11;;;;;;;;;;;;;;;-1.44;84.49;100975.56;4983360;28;19918;-69
2022/12/19 10:37:40;;;;;;;;;;;;;;;-1.42;84.22;100974.50;4982903;28;20024;-69
2022/12/19 10:40:12;;;;;;;;;;;;;;;-1.39;85.20;100968.22;4982509;28;19921;-69
2022/12/19 10:42:53;;;;;;;;;;;;;;;-1.41;84.35;100975.34;4983513;28;19922;-69
2022/12/19 10:45:19;;;;;;;;;;;;;;;-1.43;84.29;100972.84;4983505;28;20318;-69
2022/12/19 10:47:46;;;;;;;;;;;;;;;-1.44;84.27;100971.13;4981595;28;19929;-69
2022/12/19 10:50:12;;;;;;;;;;;;;;;-1.44;84.99;100960.59;4982562;28;19914;-69
2022/12/19 10:52:54;;;;;;;;;;;;;;;-1.44;85.00;100960.59;4982706;28;19961;-69
2022/12/19 10:55:28;;;;;;;;;;;;;;;-1.42;84.52;100958.69;4983132;28;19980;-69
2022/12/19 10:57:56;;;;;;;;;;;;;;;-1.40;84.96;100950.69;4982806;28;19913;-69
2022/12/19 11:00:21;;;;;;;;;;;;;;;-1.39;84.54;100945.34;4982582;28;19914;-69
2022/12/19 11:02:49;;;;;;;;;;;;;;;-1.37;84.84;100943.44;4983295;28;20043;-69
2022/12/19 11:05:20;;;;;;;;;;;;;;;-1.35;85.23;100939.88;4981011;28;19921;-69
2022/12/19 11:07:58;;;;;;;;;;;;;;;-1.36;85.31;100939.00;4981536;28;20350;-68
2022/12/19 11:10:46;;;;;;;;;;;;;;;-1.38;84.72;100936.47;4983051;28;19924;-69
2022/12/19 11:13:21;;;;;;;;;;;;;;;-1.39;84.83;100926.06;4982540;28;19921;-69
2022/12/19 11:15:47;;;;;;;;;;;;;;;-1.42;84.16;100921.81;4986559;28;19921;-69
2022/12/19 11:18:13;;;;;;;;;;;;;;;-1.41;83.94;100922.66;4985364;28;19929;-69
2022/12/19 11:20:38;;;;;;;;;;;;;;;-1.42;84.08;100924.47;4986709;28;20294;-69
2022/12/19 11:23:04;;;;;;;;;;;;;;;-1.42;83.87;100921.81;4986689;28;19918;-69
2022/12/19 11:25:36;;;;;;;;;;;;;;;-1.43;84.33;100920.16;4986056;28;19914;-69
2022/12/19 11:28:16;;;;;;;;;;;;;;;-1.45;83.47;100919.41;4986201;28;19918;-69
2022/12/19 11:30:41;;;;;;;;;;;;;;;-1.46;83.23;100914.25;4986532;28;19914;-69
2022/12/19 11:33:11;;;;;;;;;;;;;;;-1.47;83.35;100913.38;4986509;28;20286;-69
2022/12/19 11:35:48;;;;;;;;;;;;;;;-1.47;83.78;100907.28;4985804;28;19914;-69
2022/12/19 11:38:15;;;;;;;;;;;;;;;-1.48;83.56;100903.81;4985401;28;20342;-69
2022/12/19 11:40:47;;;;;;;;;;;;;;;-1.45;83.82;100902.75;4985793;28;19949;-69
2022/12/19 11:43:15;;;;;;;;;;;;;;;-1.45;84.24;100903.63;4986182;28;19922;-69
2022/12/19 11:45:59;;;;;;;;;;;;;;;-1.43;84.11;100887.69;4985823;28;19921;-69
2022/12/19 11:48:36;;;;;;;;;;;;;;;-1.41;85.01;100896.31;4985387;28;19924;-69
2022/12/19 11:51:13;;;;;;;;;;;;;;;-1.42;84.85;100884.09;4985323;28;19921;-68
2022/12/19 11:53:39;;;;;;;;;;;;;;;-1.41;84.21;100878.75;4985107;28;19988;-69
2022/12/19 11:56:08;;;;;;;;;;;;;;;-1.40;84.85;100876.94;4985527;28;19994;-69
2022/12/19 11:58:33;;;;;;;;;;;;;;;-1.41;84.85;100865.56;4984655;28;19918;-69
2022/12/19 12:00:58;;;;;;;;;;;;;;;-1.39;85.06;100860.19;4985679;28;20393;-69
2022/12/19 12:03:42;;;;;;;;;;;;;;;-1.39;85.58;100855.75;4985412;28;19914;-69
2022/12/19 12:06:30;;;;;;;;;;;;;;;-1.36;85.69;100852.06;4985875;28;19964;-69
2022/12/19 12:09:04;;;;;;;;;;;;;;;-1.40;84.72;100840.91;4984948;28;19933;-69
2022/12/19 12:11:48;;;;;;;;;;;;;;;-1.40;85.29;100832.16;4985531;28;19917;-68
2022/12/19 12:14:17;;;;;;;;;;;;;;;-1.41;84.61;100828.69;4985893;28;19925;-69
2022/12/19 12:16:55;;;;;;;;;;;;;;;-1.42;84.36;100827.00;4984978;28;19918;-68
2022/12/19 12:19:32;;;;;;;;;;;;;;;-1.43;83.92;100821.81;4984818;28;19917;-68
2022/12/19 12:22:10;;;;;;;;;;;;;;;-1.42;85.25;100820.88;4984833;28;19918;-69
2022/12/19 12:24:46;;;;;;;;;;;;;;;-1.46;84.41;100812.34;4984614;28;19921;-69
2022/12/19 12:27:19;;;;;;;;;;;;;;;-1.48;84.26;100801.09;4985166;28;20374;-69
2022/12/19 12:29:44;;;;;;;;;;;;;;;-1.48;84.58;100803.72;4985703;28;19925;-69
2022/12/19 12:32:24;;;;;;;;;;;;;;;-1.49;84.88;100795.94;4985041;28;19914;-69
2022/12/19 12:35:13;;;;;;;;;;;;;;;-1.51;84.78;100793.41;4984115;28;19963;-68
2022/12/19 12:37:51;;;;;;;;;;;;;;;-1.50;85.08;100792.47;4982263;28;20004;-68
2022/12/19 12:40:35;;;;;;;;;;;;;;;-1.54;83.68;100788.38;4984312;28;20267;-68
2022/12/19 12:43:06;;;;;;;;;;;;;;;-1.58;84.13;100778.97;4984677;28;19921;-68
2022/12/19 12:45:37;;;;;;;;;;;;;;;-1.60;83.93;100780.88;4984251;28;19914;-67